createdAt,value
2019-04-30T00:00:30.440Z,99144.09
2019-04-30T00:05:57.348Z,99141.44
2019-04-30T00:08:39.229Z,99132.89
2019-04-30T00:11:21.898Z,99130.80
2019-04-30T00:13:55.431Z,99123.19
2019-04-30T00:16:45.123Z,99128.34
2019-04-30T00:19:26.675Z,99126.22
2019-04-30T00:22:00.286Z,99112.98
2019-04-30T00:24:44.276Z,99099.80
2019-04-30T00:27:28.313Z,99103.56
2019-04-30T00:30:04.856Z,99107.35
2019-04-30T00:32:47.184Z,99089.52
2019-04-30T00:35:27.837Z,99089.91
2019-04-30T00:38:00.214Z,99086.08
2019-04-30T00:40:49.666Z,99088.16
2019-04-30T00:43:20.094Z,99080.16
2019-04-30T00:45:50.564Z,99073.36
2019-04-30T00:48:28.168Z,99073.25
2019-04-30T00:51:18.242Z,99072.31
2019-04-30T00:53:55.781Z,99075.05
2019-04-30T00:56:39.350Z,99071.17
2019-04-30T00:59:10.672Z,99063.56
2019-04-30T01:02:29.211Z,99070.00
2019-04-30T01:07:55.280Z,99061.83
2019-04-30T01:10:28.321Z,99051.82
2019-04-30T01:13:19.064Z,99054.38
2019-04-30T01:16:00.638Z,99056.45
2019-04-30T01:18:50.408Z,99049.31
2019-04-30T01:21:20.752Z,99083.40
2019-04-30T01:24:10.559Z,99048.84
2019-04-30T01:26:41.083Z,99058.87
2019-04-30T01:29:38.240Z,99086.94
2019-04-30T01:32:22.325Z,99059.78
2019-04-30T01:34:54.036Z,99042.38
2019-04-30T01:37:44.121Z,99035.96
2019-04-30T01:40:14.749Z,99044.47
2019-04-30T01:42:48.528Z,99043.08
2019-04-30T01:45:31.481Z,99043.62
2019-04-30T01:48:12.723Z,99037.28
2019-04-30T01:50:54.178Z,99043.66
2019-04-30T01:53:24.766Z,99036.53
2019-04-30T02:01:55.654Z,99032.75
2019-04-30T02:04:26.018Z,99029.34
2019-04-30T02:07:15.791Z,99031.11
2019-04-30T02:12:49.545Z,99031.24
2019-04-30T02:15:19.901Z,99027.89
2019-04-30T02:17:50.547Z,99032.95
2019-04-30T02:20:41.803Z,99027.91
2019-04-30T02:23:31.564Z,99063.19
2019-04-30T02:26:01.944Z,99024.92
2019-04-30T02:28:32.335Z,99018.97
2019-04-30T02:31:02.678Z,99024.12
2019-04-30T02:36:34.291Z,99017.17
2019-04-30T02:54:35.090Z,99017.69
2019-04-30T02:57:24.852Z,99008.34
2019-04-30T03:00:14.117Z,99020.70
2019-04-30T03:02:44.564Z,99011.94
2019-04-30T03:08:19.926Z,98998.89
2019-04-30T03:11:09.728Z,99013.89
2019-04-30T03:13:52.157Z,98992.78
2019-04-30T03:19:29.523Z,98994.13
2019-04-30T03:22:10.342Z,98984.29
2019-04-30T03:24:52.836Z,98988.14
2019-04-30T03:27:24.778Z,99019.11
2019-04-30T03:30:14.747Z,98976.64
2019-04-30T03:32:50.781Z,98997.41
2019-04-30T03:35:36.512Z,98976.59
2019-04-30T03:38:26.274Z,98990.65
2019-04-30T03:41:16.065Z,98971.16
2019-04-30T03:43:46.410Z,98973.63
2019-04-30T03:46:19.267Z,98978.69
2019-04-30T03:48:54.346Z,98979.53
2019-04-30T03:51:24.726Z,98974.94
2019-04-30T03:54:14.470Z,98975.70
2019-04-30T03:56:45.109Z,98995.70
2019-04-30T03:59:15.495Z,98975.33
2019-04-30T04:02:04.751Z,98979.23
2019-04-30T04:05:13.515Z,98975.79
2019-04-30T04:08:02.754Z,98962.63
2019-04-30T04:11:11.439Z,98970.83
2019-04-30T04:13:41.802Z,98969.05
2019-04-30T04:16:12.126Z,98967.00
2019-04-30T04:18:42.496Z,98995.48
2019-04-30T04:21:16.765Z,98958.09
2019-04-30T04:23:56.228Z,98962.45
2019-04-30T04:26:26.567Z,98954.39
2019-04-30T04:28:59.193Z,98956.98
2019-04-30T04:31:39.896Z,98946.45
2019-04-30T04:34:10.264Z,98956.55
2019-04-30T04:36:43.346Z,98951.92
2019-04-30T04:39:25.158Z,98948.19
2019-04-30T04:42:14.893Z,98946.02
2019-04-30T04:45:05.196Z,98959.66
2019-04-30T04:47:35.587Z,98957.06
2019-04-30T04:50:25.385Z,98962.58
2019-04-30T04:53:15.146Z,98943.05
2019-04-30T04:56:04.915Z,98947.38
2019-04-30T04:58:54.689Z,98949.00
2019-04-30T05:01:31.897Z,98938.34
2019-04-30T05:04:21.671Z,98954.09
2019-04-30T05:07:11.456Z,98950.61
2019-04-30T05:10:01.398Z,98936.22
2019-04-30T05:12:33.445Z,98944.23
2019-04-30T05:15:03.867Z,98950.06
2019-04-30T05:17:34.238Z,98935.67
2019-04-30T05:20:05.377Z,98962.80
2019-04-30T05:22:35.815Z,98941.53
2019-04-30T05:25:25.646Z,98937.14
2019-04-30T05:27:56.028Z,98967.30
2019-04-30T05:30:26.550Z,98953.41
2019-04-30T05:32:58.500Z,98967.38
2019-04-30T05:35:49.581Z,98953.38
2019-04-30T05:38:26.020Z,98940.12
2019-04-30T05:40:56.473Z,98930.83
2019-04-30T05:43:28.835Z,98959.56
2019-04-30T05:46:11.050Z,98974.77
2019-04-30T05:48:53.329Z,98943.30
2019-04-30T05:51:52.883Z,98932.16
2019-04-30T05:54:26.026Z,98939.05
2019-04-30T05:56:56.366Z,98959.14
2019-04-30T05:59:29.002Z,98950.27
2019-04-30T06:02:11.738Z,98963.39
2019-04-30T06:05:01.524Z,98951.97
2019-04-30T06:07:51.966Z,98967.46
2019-04-30T06:16:29.830Z,98968.35
2019-04-30T06:19:12.650Z,98975.27
2019-04-30T06:21:43.032Z,98949.50
2019-04-30T06:24:13.373Z,98951.26
2019-04-30T06:26:43.742Z,98941.37
2019-04-30T06:32:59.309Z,98950.05
2019-04-30T06:35:40.617Z,98929.13
2019-04-30T06:38:11.039Z,98946.03
2019-04-30T06:40:41.553Z,98935.81
2019-04-30T06:43:12.186Z,98938.75
2019-04-30T06:45:42.605Z,98942.09
2019-04-30T06:51:16.259Z,99002.55
2019-04-30T06:53:48.934Z,98950.16
2019-04-30T06:56:33.192Z,98942.21
2019-04-30T06:59:03.861Z,98948.43
2019-04-30T07:01:34.298Z,98963.34
2019-04-30T07:04:04.705Z,98950.83
2019-04-30T07:06:37.110Z,98942.33
2019-04-30T07:09:51.272Z,98952.95
2019-04-30T07:12:34.391Z,98943.33
2019-04-30T07:15:05.266Z,98944.18
2019-04-30T07:17:35.661Z,98966.56
2019-04-30T07:20:06.493Z,98953.05
2019-04-30T07:22:41.033Z,98965.84
2019-04-30T07:25:19.907Z,98955.31
2019-04-30T07:27:50.737Z,98965.90
2019-04-30T07:30:41.908Z,98947.99
2019-04-30T07:33:12.396Z,98949.61
2019-04-30T07:35:42.832Z,98957.52
2019-04-30T07:38:13.315Z,98943.45
2019-04-30T07:40:43.819Z,98937.88
2019-04-30T07:43:14.235Z,98961.20
2019-04-30T07:45:44.643Z,98950.25
2019-04-30T07:48:15.148Z,98953.08
2019-04-30T07:50:46.018Z,98951.95
2019-04-30T07:53:31.017Z,98958.13
2019-04-30T07:56:25.789Z,98948.72
2019-04-30T07:58:56.759Z,98944.56
2019-04-30T08:01:29.026Z,98975.61
2019-04-30T08:04:29.442Z,98964.00
2019-04-30T08:07:01.930Z,98959.66
2019-04-30T08:09:39.252Z,98967.16
2019-04-30T08:12:22.255Z,98956.95
2019-04-30T08:14:59.557Z,98967.06
2019-04-30T08:17:36.560Z,98952.80
2019-04-30T08:20:08.721Z,98958.32
2019-04-30T08:23:03.102Z,98952.32
2019-04-30T08:25:41.587Z,98953.88
2019-04-30T08:28:12.011Z,98959.83
2019-04-30T08:30:42.378Z,98961.58
2019-04-30T08:33:12.836Z,98948.72
2019-04-30T08:35:43.207Z,98963.06
2019-04-30T08:38:13.573Z,98955.41
2019-04-30T08:40:55.544Z,98956.16
2019-04-30T08:43:29.316Z,98945.89
2019-04-30T08:46:15.827Z,98941.90
2019-04-30T08:48:51.595Z,98944.64
2019-04-30T08:51:38.880Z,98951.38
2019-04-30T08:54:15.254Z,98950.04
2019-04-30T08:56:45.567Z,98959.69
2019-04-30T08:59:15.993Z,98956.45
2019-04-30T09:01:46.376Z,98948.80
2019-04-30T09:04:16.746Z,98955.50
2019-04-30T09:06:49.021Z,98954.60
2019-04-30T09:12:21.728Z,98951.23
2019-04-30T09:14:52.294Z,98966.08
2019-04-30T09:17:22.718Z,98958.96
2019-04-30T09:19:53.204Z,98969.73
2019-04-30T09:22:23.592Z,98957.59
2019-04-30T09:24:53.944Z,98958.88
2019-04-30T09:33:11.227Z,98961.45
2019-04-30T09:35:53.315Z,98970.63
2019-04-30T09:38:23.676Z,98969.84
2019-04-30T09:40:54.025Z,98973.70
2019-04-30T09:43:24.388Z,98972.84
2019-04-30T09:46:22.016Z,98967.01
2019-04-30T09:48:59.737Z,98970.23
2019-04-30T09:51:42.117Z,98969.95
2019-04-30T09:54:25.716Z,98965.62
2019-04-30T09:56:56.050Z,98963.26
2019-04-30T09:59:28.959Z,98971.52
2019-04-30T10:02:09.699Z,98959.59
2019-04-30T10:04:40.830Z,98964.25
2019-04-30T10:07:31.602Z,98957.50
2019-04-30T10:10:01.968Z,98958.73
2019-04-30T10:12:32.336Z,98950.38
2019-04-30T10:15:02.831Z,98957.45
2019-04-30T10:17:52.143Z,98955.89
2019-04-30T10:23:24.739Z,98955.72
2019-04-30T10:25:55.096Z,98952.41
2019-04-30T10:28:25.624Z,98947.06
2019-04-30T10:31:15.418Z,98951.45
2019-04-30T10:33:45.757Z,98945.84
2019-04-30T10:36:16.316Z,98954.30
2019-04-30T10:38:46.765Z,98937.22
2019-04-30T10:41:18.804Z,98942.36
2019-04-30T10:44:00.520Z,98945.20
2019-04-30T10:46:31.059Z,98954.89
2019-04-30T10:49:01.540Z,98942.55
2019-04-30T10:51:31.970Z,98950.33
2019-04-30T10:54:02.438Z,98944.17
2019-04-30T10:56:32.890Z,98943.73
2019-04-30T10:59:03.304Z,98945.33
2019-04-30T11:01:33.657Z,98944.90
2019-04-30T11:04:04.223Z,98936.00
2019-04-30T11:06:34.695Z,98945.67
2019-04-30T11:12:09.361Z,98943.47
2019-04-30T11:14:58.923Z,98931.20
2019-04-30T11:17:30.207Z,98926.97
2019-04-30T11:20:22.262Z,98924.80
2019-04-30T11:23:13.718Z,98925.30
2019-04-30T11:25:49.895Z,98927.63
2019-04-30T11:28:30.731Z,98922.20
2019-04-30T11:31:32.990Z,98929.50
2019-04-30T11:36:47.309Z,98925.86
2019-04-30T11:42:29.173Z,98913.61
2019-04-30T11:44:59.540Z,98911.44
2019-04-30T11:53:25.251Z,98912.19
2019-04-30T11:56:08.792Z,98908.07
2019-04-30T11:58:44.806Z,98910.33
2019-04-30T12:04:19.443Z,98909.45
2019-04-30T12:07:28.095Z,98913.44
2019-04-30T12:10:19.364Z,98916.14
2019-04-30T12:12:55.888Z,98926.28
2019-04-30T12:15:45.704Z,98911.16
2019-04-30T12:18:16.198Z,98916.70
2019-04-30T12:20:46.717Z,98915.45
2019-04-30T12:23:18.927Z,98911.84
2019-04-30T12:26:02.702Z,98910.23
2019-04-30T12:28:37.767Z,98914.96
2019-04-30T12:31:09.870Z,98918.37
2019-04-30T12:33:59.712Z,98925.36
2019-04-30T12:36:30.223Z,98918.73
2019-04-30T12:39:00.617Z,98908.92
2019-04-30T12:41:31.131Z,98929.77
2019-04-30T12:44:01.545Z,98939.75
2019-04-30T12:46:32.009Z,98943.41
2019-04-30T12:49:21.370Z,98935.50
2019-04-30T12:52:10.718Z,98940.27
2019-04-30T12:55:00.088Z,98929.81
2019-04-30T13:03:17.269Z,98913.89
2019-04-30T13:05:50.060Z,98906.52
2019-04-30T13:08:40.030Z,98908.20
2019-04-30T13:11:23.029Z,98910.08
2019-04-30T13:14:06.659Z,98907.02
2019-04-30T13:16:49.670Z,98900.38
2019-04-30T13:19:20.225Z,98906.79
2019-04-30T13:21:50.790Z,98900.16
2019-04-30T13:24:21.401Z,98907.12
2019-04-30T13:26:51.956Z,98918.70
2019-04-30T13:29:41.311Z,98915.00
2019-04-30T13:32:11.863Z,98932.62
2019-04-30T13:40:45.280Z,98949.37
2019-04-30T13:46:00.051Z,98947.16
2019-04-30T13:48:30.651Z,98937.84
2019-04-30T13:51:01.116Z,98939.71
2019-04-30T13:53:31.640Z,98935.83
2019-04-30T13:56:02.069Z,98920.95
2019-04-30T13:58:32.586Z,98927.05
2019-04-30T14:04:12.995Z,98924.80
2019-04-30T14:09:36.331Z,98913.80
2019-04-30T14:12:06.806Z,98929.84
2019-04-30T14:14:39.429Z,98918.73
2019-04-30T14:17:15.233Z,98915.91
2019-04-30T14:19:45.645Z,98916.00
2019-04-30T14:22:16.251Z,98929.00
2019-04-30T14:24:46.730Z,98930.20
2019-04-30T14:27:17.235Z,98925.92
2019-04-30T14:29:49.442Z,98928.48
2019-04-30T14:32:32.729Z,98930.95
2019-04-30T14:35:03.151Z,98943.83
2019-04-30T14:37:33.615Z,98941.44
2019-04-30T14:40:04.960Z,98952.91
2019-04-30T14:51:28.719Z,98984.90
2019-04-30T14:54:19.914Z,98976.42
2019-04-30T14:57:14.904Z,98967.38
2019-04-30T15:00:04.182Z,98957.28
2019-04-30T15:02:38.253Z,98958.75
2019-04-30T15:05:11.579Z,98955.83
2019-04-30T15:07:42.153Z,98951.66
2019-04-30T15:10:12.542Z,98975.91
2019-04-30T15:12:43.095Z,98988.72
2019-04-30T15:18:16.679Z,98971.59
2019-04-30T15:20:47.083Z,98983.94
2019-04-30T15:26:24.489Z,98958.77
2019-04-30T15:29:00.022Z,98951.10
2019-04-30T15:31:43.097Z,98956.31
2019-04-30T15:34:14.459Z,98941.67
2019-04-30T15:36:44.871Z,98944.61
2019-04-30T15:39:34.397Z,98945.37
2019-04-30T15:42:04.928Z,98939.31
2019-04-30T15:44:54.707Z,98936.14
2019-04-30T15:47:44.538Z,98935.50
2019-04-30T15:53:19.242Z,98938.74
2019-04-30T15:56:08.962Z,98932.89
2019-04-30T16:01:36.880Z,98934.37
2019-04-30T16:07:19.532Z,98933.86
2019-04-30T16:10:20.614Z,98943.33
2019-04-30T16:13:09.934Z,98945.39
2019-04-30T16:15:59.722Z,98943.64
2019-04-30T16:21:33.209Z,98934.52
2019-04-30T16:24:23.012Z,98927.43
2019-04-30T16:26:53.511Z,98915.39
2019-04-30T16:29:23.904Z,98915.08
2019-04-30T16:31:54.370Z,98904.13
2019-04-30T16:34:24.772Z,98900.95
2019-04-30T16:36:55.215Z,98895.84
2019-04-30T16:39:25.673Z,98902.57
2019-04-30T16:41:56.117Z,98898.00
2019-04-30T16:44:26.578Z,98901.44
2019-04-30T16:46:57.046Z,98900.16
2019-04-30T16:49:48.848Z,98899.06
2019-04-30T16:52:24.450Z,98908.10
2019-04-30T16:54:54.951Z,98915.22
2019-04-30T16:57:25.488Z,98908.30
2019-04-30T17:08:51.120Z,98907.00
2019-04-30T17:11:40.403Z,98905.74
2019-04-30T17:14:13.684Z,98909.38
2019-04-30T17:16:44.664Z,98902.70
2019-04-30T17:19:15.033Z,98909.76
2019-04-30T17:24:30.248Z,98907.16
2019-04-30T17:27:22.247Z,98907.70
2019-04-30T17:30:06.711Z,98912.84
2019-04-30T17:32:37.191Z,98916.69
2019-04-30T17:35:09.067Z,98926.72
2019-04-30T17:37:45.313Z,98922.19
2019-04-30T17:40:16.069Z,98922.11
2019-04-30T17:42:46.490Z,98926.20
2019-04-30T17:45:19.369Z,98928.63
2019-04-30T17:48:08.925Z,98948.34
2019-04-30T17:50:39.754Z,98945.34
2019-04-30T17:53:18.962Z,98966.12
2019-04-30T17:55:59.614Z,98957.17
2019-04-30T17:58:49.415Z,98963.27
2019-04-30T18:04:23.902Z,98963.23
2019-04-30T18:07:13.730Z,98974.27
2019-04-30T18:09:44.240Z,98974.52
2019-04-30T18:12:14.623Z,98973.08
2019-04-30T18:14:45.135Z,98973.08
2019-04-30T18:17:34.907Z,98973.74
2019-04-30T18:20:24.917Z,98978.31
2019-04-30T18:28:31.368Z,98991.33
2019-04-30T18:31:01.814Z,98993.64
2019-04-30T18:33:32.220Z,98991.27
2019-04-30T18:36:02.721Z,99006.69
2019-04-30T18:38:33.153Z,99001.84
2019-04-30T18:41:03.586Z,98996.02
2019-04-30T18:43:34.000Z,99009.84
2019-04-30T18:46:04.589Z,99008.72
2019-04-30T18:48:35.047Z,99015.08
2019-04-30T18:51:19.199Z,99015.06
2019-04-30T18:53:43.223Z,99019.77
2019-04-30T18:56:14.859Z,99033.53
2019-04-30T18:59:05.364Z,99037.33
2019-04-30T19:01:35.759Z,99029.09
2019-04-30T19:04:06.249Z,99039.02
2019-04-30T19:06:36.635Z,99036.41
2019-04-30T19:09:29.803Z,99035.88
2019-04-30T19:12:33.490Z,99039.58
2019-04-30T19:15:35.669Z,99038.17
2019-04-30T19:18:19.937Z,99040.55
2019-04-30T19:20:53.034Z,99045.18
2019-04-30T19:23:23.542Z,99047.31
2019-04-30T19:25:54.109Z,99044.24
2019-04-30T19:28:24.504Z,99053.03
2019-04-30T19:30:58.385Z,99056.04
2019-04-30T19:33:32.636Z,99050.03
2019-04-30T19:36:03.069Z,99061.27
2019-04-30T19:38:33.469Z,99050.38
2019-04-30T19:41:04.104Z,99051.59
2019-04-30T19:43:34.832Z,99049.43
2019-04-30T19:46:05.328Z,99051.41
2019-04-30T19:48:35.762Z,99046.03
2019-04-30T19:51:06.272Z,99045.02
2019-04-30T19:53:36.701Z,99046.78
2019-04-30T19:56:07.238Z,99046.45
2019-04-30T19:58:50.066Z,99052.50
2019-04-30T20:01:21.274Z,99052.21
2019-04-30T20:03:51.897Z,99046.83
2019-04-30T20:06:22.465Z,99050.42
2019-04-30T20:08:52.920Z,99053.08
2019-04-30T20:11:23.379Z,99047.06
2019-04-30T20:13:53.950Z,99056.21
2019-04-30T20:16:24.620Z,99053.84
2019-04-30T20:19:14.397Z,99054.97
2019-04-30T20:21:48.736Z,99047.64
2019-04-30T20:24:36.427Z,99041.84
2019-04-30T20:27:09.538Z,99048.83
2019-04-30T20:29:59.265Z,99042.63
2019-04-30T20:32:42.006Z,99044.30
2019-04-30T20:35:12.444Z,99040.73
2019-04-30T20:38:01.772Z,99040.20
2019-04-30T20:43:16.085Z,99042.64
2019-04-30T20:45:46.562Z,99041.33
2019-04-30T20:48:18.835Z,99034.28
2019-04-30T20:51:01.388Z,99038.58
2019-04-30T20:53:43.251Z,99041.52
2019-04-30T20:56:13.726Z,99037.33
2019-04-30T20:58:54.946Z,99038.22
2019-04-30T21:01:29.245Z,99046.73
2019-04-30T21:04:10.305Z,99057.20
2019-04-30T21:06:40.722Z,99044.68
2019-04-30T21:09:11.182Z,99047.24
2019-04-30T21:11:41.585Z,99039.86
2019-04-30T21:14:12.058Z,99043.99
2019-04-30T21:16:42.516Z,99047.16
2019-04-30T21:19:12.948Z,99037.61
2019-04-30T21:22:02.442Z,99042.37
2019-04-30T21:24:32.876Z,99049.50
2019-04-30T21:27:03.307Z,99050.75
2019-04-30T21:29:33.893Z,99038.02
2019-04-30T21:32:23.195Z,99043.02
2019-04-30T21:35:12.630Z,99045.59
2019-04-30T21:37:43.093Z,99047.40
2019-04-30T21:40:13.594Z,99047.41
2019-04-30T21:42:44.121Z,99059.80
2019-04-30T21:45:14.497Z,99059.86
2019-04-30T21:47:55.763Z,99053.97
2019-04-30T21:50:36.510Z,99048.31
2019-04-30T21:53:06.950Z,99055.50
2019-04-30T21:55:39.606Z,99052.88
2019-04-30T21:58:20.612Z,99041.05
2019-04-30T22:04:28.827Z,99052.41
2019-04-30T22:06:59.563Z,99044.14
2019-04-30T22:09:42.320Z,99044.92
2019-04-30T22:12:12.730Z,99046.97
2019-04-30T22:14:43.203Z,99040.05
2019-04-30T22:17:13.651Z,99043.05
2019-04-30T22:19:44.048Z,99047.84
2019-04-30T22:22:14.537Z,99047.66
2019-04-30T22:24:44.913Z,99044.33
2019-04-30T22:27:17.482Z,99045.27
2019-04-30T22:30:46.225Z,99049.59
2019-04-30T22:33:16.618Z,99041.45
2019-04-30T22:36:05.908Z,99048.80
2019-04-30T22:44:08.060Z,99048.53
2019-04-30T22:49:27.287Z,99030.84
2019-04-30T22:51:57.658Z,99045.02
2019-04-30T22:54:28.131Z,99036.48
2019-04-30T22:56:58.621Z,99028.25
2019-04-30T22:59:29.060Z,99032.79
2019-04-30T23:02:18.387Z,99036.11
2019-04-30T23:04:49.009Z,99026.56
2019-04-30T23:07:19.404Z,99036.31
2019-04-30T23:10:09.297Z,99033.49
2019-04-30T23:12:39.685Z,99029.39
2019-04-30T23:15:10.271Z,99032.66
2019-04-30T23:17:40.781Z,99035.23
2019-04-30T23:23:08.038Z,99030.16
2019-04-30T23:25:38.455Z,99022.50
2019-04-30T23:28:08.871Z,99032.02
2019-04-30T23:30:39.245Z,99036.65
2019-04-30T23:33:09.764Z,99023.02
2019-04-30T23:35:40.282Z,99016.41
2019-04-30T23:38:10.693Z,99016.91
2019-04-30T23:43:49.432Z,99022.17
2019-04-30T23:46:19.838Z,99023.72
2019-04-30T23:48:50.225Z,99029.61
2019-04-30T23:51:20.617Z,99024.66
2019-04-30T23:53:51.065Z,99024.17
2019-04-30T23:56:21.539Z,99024.28
2019-04-30T23:58:51.944Z,99025.06
